createdAt,value
2022-08-05T00:01:36.412Z,37.95
2022-08-05T00:04:18.192Z,37.93
2022-08-05T00:06:46.895Z,38.20
2022-08-05T00:09:15.999Z,37.89
2022-08-05T00:11:55.379Z,37.84
2022-08-05T00:14:27.840Z,37.74
2022-08-05T00:16:57.897Z,37.48
2022-08-05T00:19:33.253Z,37.14
2022-08-05T00:22:02.825Z,37.27
2022-08-05T00:24:31.845Z,36.79
2022-08-05T00:27:04.689Z,36.59
2022-08-05T00:29:38.523Z,36.50
2022-08-05T00:32:12.197Z,36.07
2022-08-05T00:35:03.727Z,36.10
2022-08-05T00:37:35.591Z,35.25
2022-08-05T00:40:26.917Z,35.61
2022-08-05T00:43:02.180Z,35.47
2022-08-05T00:45:43.064Z,34.83
2022-08-05T00:48:27.435Z,34.54
2022-08-05T00:50:59.151Z,33.96
2022-08-05T00:54:00.791Z,33.67
2022-08-05T00:56:17.780Z,33.39
2022-08-05T00:58:50.709Z,33.24
2022-08-05T01:01:24.785Z,33.00
2022-08-05T01:04:13.786Z,32.90
2022-08-05T01:06:43.777Z,32.71
2022-08-05T01:09:19.817Z,32.34
2022-08-05T01:11:52.117Z,32.28
2022-08-05T01:14:35.140Z,32.13
2022-08-05T01:17:12.175Z,32.43
2022-08-05T01:20:03.806Z,32.65
2022-08-05T01:22:59.753Z,33.28
2022-08-05T01:26:00.260Z,34.26
2022-08-05T01:28:41.503Z,34.40
2022-08-05T01:31:33.724Z,34.88
2022-08-05T01:34:32.840Z,35.26
2022-08-05T01:37:30.010Z,37.19
2022-08-05T01:40:03.520Z,38.12
2022-08-05T01:42:32.884Z,37.57
2022-08-05T01:45:03.351Z,37.41
2022-08-05T01:47:39.709Z,37.05
2022-08-05T01:50:28.728Z,36.82
2022-08-05T01:53:02.097Z,37.41
2022-08-05T01:55:36.145Z,38.97
2022-08-05T01:58:15.999Z,39.60
2022-08-05T02:00:50.424Z,41.97
2022-08-05T02:03:36.283Z,42.23
2022-08-05T02:06:33.512Z,41.39
2022-08-05T02:08:58.549Z,41.13
2022-08-05T02:11:42.136Z,39.69
2022-08-05T02:14:15.587Z,38.49
2022-08-05T02:16:54.807Z,38.59
2022-08-05T02:19:34.285Z,39.33
2022-08-05T02:22:40.198Z,40.71
2022-08-05T02:25:19.613Z,44.59
2022-08-05T02:27:59.428Z,47.54
2022-08-05T02:30:32.524Z,48.00
2022-08-05T02:33:04.898Z,49.30
2022-08-05T02:35:38.555Z,50.80
2022-08-05T02:38:19.955Z,51.96
2022-08-05T02:40:47.812Z,52.34
2022-08-05T02:43:17.069Z,52.46
2022-08-05T02:45:52.095Z,53.02
2022-08-05T02:48:29.455Z,53.93
2022-08-05T02:51:00.829Z,54.41
2022-08-05T02:53:38.991Z,53.56
2022-08-05T02:56:16.106Z,54.17
2022-08-05T02:58:52.654Z,54.07
2022-08-05T03:01:25.204Z,54.78
2022-08-05T03:04:14.397Z,54.54
2022-08-05T03:06:53.576Z,54.96
2022-08-05T03:09:37.679Z,54.85
2022-08-05T03:12:07.814Z,55.65
2022-08-05T03:14:45.767Z,55.39
2022-08-05T03:17:13.870Z,55.59
2022-08-05T03:19:42.328Z,55.90
2022-08-05T03:22:16.067Z,56.11
2022-08-05T03:24:50.814Z,56.05
2022-08-05T03:27:21.549Z,56.24
2022-08-05T03:30:08.681Z,56.51
2022-08-05T03:32:39.181Z,56.68
2022-08-05T03:35:09.026Z,57.08
2022-08-05T03:37:45.767Z,57.17
2022-08-05T03:40:15.483Z,56.84
2022-08-05T03:42:53.006Z,57.17
2022-08-05T03:45:23.260Z,57.27
2022-08-05T03:47:56.845Z,57.10
2022-08-05T03:50:42.722Z,57.46
2022-08-05T03:56:01.222Z,56.89
2022-08-05T03:56:41.263Z,56.03
2022-08-05T03:59:20.198Z,55.06
2022-08-05T04:01:52.073Z,54.26
2022-08-05T04:04:21.656Z,53.68
2022-08-05T04:06:54.889Z,52.78
2022-08-05T04:09:26.013Z,52.35
2022-08-05T04:11:57.726Z,52.80
2022-08-05T04:14:29.823Z,53.08
2022-08-05T04:17:00.382Z,52.97
2022-08-05T04:19:29.794Z,53.77
2022-08-05T04:22:09.783Z,55.00
2022-08-05T04:24:52.729Z,55.08
2022-08-05T04:27:41.624Z,54.97
2022-08-05T04:30:10.519Z,54.58
2022-08-05T04:32:38.161Z,54.63
2022-08-05T04:35:17.741Z,55.02
2022-08-05T04:38:01.516Z,54.81
2022-08-05T04:40:44.493Z,54.95
2022-08-05T04:43:22.023Z,54.46
2022-08-05T04:45:55.222Z,54.01
2022-08-05T04:48:27.392Z,53.92
2022-08-05T04:51:01.623Z,54.40
2022-08-05T04:53:33.556Z,54.09
2022-08-05T04:56:34.018Z,54.24
2022-08-05T04:58:52.120Z,53.54
2022-08-05T05:01:33.822Z,52.78
2022-08-05T05:04:07.828Z,53.30
2022-08-05T05:06:44.729Z,53.26
2022-08-05T05:09:13.980Z,52.30
2022-08-05T05:11:54.580Z,52.19
2022-08-05T05:14:27.928Z,50.79
2022-08-05T05:17:00.938Z,50.99
2022-08-05T05:19:37.162Z,51.35
2022-08-05T05:22:22.632Z,51.49
2022-08-05T05:24:56.987Z,52.90
2022-08-05T05:27:44.567Z,53.07
2022-08-05T05:30:29.751Z,53.81
2022-08-05T05:33:15.952Z,53.73
2022-08-05T05:35:47.350Z,53.37
2022-08-05T05:38:22.722Z,52.19
2022-08-05T05:40:58.218Z,51.90
2022-08-05T05:43:54.463Z,52.95
2022-08-05T05:46:15.982Z,54.57
2022-08-05T05:48:44.795Z,57.45
2022-08-05T05:51:27.698Z,57.68
2022-08-05T05:53:59.493Z,58.86
2022-08-05T05:56:34.438Z,59.85
2022-08-05T05:59:06.718Z,60.10
2022-08-05T06:01:40.301Z,59.45
2022-08-05T06:04:13.054Z,59.60
2022-08-05T06:06:46.707Z,59.61
2022-08-05T06:09:25.890Z,59.08
2022-08-05T06:12:04.979Z,58.73
2022-08-05T06:14:34.847Z,58.76
2022-08-05T06:17:24.368Z,58.71
2022-08-05T06:19:56.366Z,58.92
2022-08-05T06:22:33.908Z,59.35
2022-08-05T06:25:25.180Z,59.13
2022-08-05T06:28:10.501Z,59.00
2022-08-05T06:30:39.458Z,59.05
2022-08-05T06:33:09.897Z,59.03
2022-08-05T06:36:05.702Z,58.51
2022-08-05T06:38:35.774Z,58.21
2022-08-05T06:41:07.860Z,57.99
2022-08-05T06:43:58.966Z,57.33
2022-08-05T06:46:30.313Z,56.99
2022-08-05T06:49:01.149Z,56.32
2022-08-05T06:51:31.345Z,55.93
2022-08-05T06:54:01.982Z,55.25
2022-08-05T06:56:34.595Z,53.68
2022-08-05T06:59:09.546Z,53.17
2022-08-05T07:01:40.780Z,52.93
2022-08-05T07:04:10.575Z,51.35
2022-08-05T07:06:38.293Z,50.58
2022-08-05T07:09:05.954Z,50.36
2022-08-05T07:11:36.930Z,48.33
2022-08-05T07:14:29.312Z,48.54
2022-08-05T07:18:01.760Z,47.25
2022-08-05T07:22:42.128Z,47.21
2022-08-05T07:25:54.472Z,45.98
2022-08-05T07:28:03.880Z,45.75
2022-08-05T07:30:38.744Z,44.84
2022-08-05T07:33:16.509Z,44.64
2022-08-05T07:36:01.695Z,44.87
2022-08-05T07:38:43.232Z,45.02
2022-08-05T07:42:08.619Z,44.82
2022-08-05T07:44:18.574Z,46.36
2022-08-05T07:46:49.798Z,45.51
2022-08-05T07:49:19.615Z,44.61
2022-08-05T07:51:53.466Z,44.40
2022-08-05T07:54:31.719Z,44.17
2022-08-05T07:57:22.694Z,44.28
2022-08-05T07:59:53.491Z,44.64
2022-08-05T08:02:31.226Z,43.92
2022-08-05T08:05:16.067Z,42.72
2022-08-05T08:07:59.616Z,42.57
2022-08-05T08:10:29.127Z,42.49
2022-08-05T08:12:58.618Z,42.22
2022-08-05T08:16:33.927Z,42.38
2022-08-05T08:18:14.774Z,42.50
2022-08-05T08:21:01.937Z,41.13
2022-08-05T08:24:01.192Z,41.84
2022-08-05T08:26:26.939Z,41.75
2022-08-05T08:29:22.244Z,39.61
2022-08-05T08:31:48.373Z,38.51
2022-08-05T08:34:30.899Z,39.85
2022-08-05T08:37:05.050Z,40.06
2022-08-05T08:39:37.369Z,39.65
2022-08-05T08:42:32.478Z,42.95
2022-08-05T08:45:20.173Z,43.64
2022-08-05T08:48:12.317Z,44.24
2022-08-05T08:51:04.161Z,41.96
2022-08-05T08:53:34.307Z,41.08
2022-08-05T08:56:06.208Z,42.39
2022-08-05T08:58:43.683Z,42.67
2022-08-05T09:01:18.095Z,42.89
2022-08-05T09:03:54.586Z,41.93
2022-08-05T09:06:30.820Z,38.47
2022-08-05T09:09:01.899Z,37.36
2022-08-05T09:11:50.872Z,36.28
2022-08-05T09:14:56.691Z,35.72
2022-08-05T09:17:40.280Z,37.92
2022-08-05T09:20:05.243Z,35.58
2022-08-05T09:23:18.900Z,33.22
2022-08-05T09:26:22.161Z,33.20
2022-08-05T09:28:54.282Z,31.81
2022-08-05T09:32:39.163Z,31.34
2022-08-05T09:34:13.036Z,33.10
2022-08-05T09:36:55.805Z,33.22
2022-08-05T09:39:45.071Z,33.33
2022-08-05T09:42:24.351Z,32.25
2022-08-05T09:45:03.194Z,32.02
2022-08-05T09:47:55.351Z,32.01
2022-08-05T09:50:43.757Z,32.58
2022-08-05T09:53:22.861Z,31.78
2022-08-05T09:56:03.935Z,30.79
2022-08-05T09:58:32.774Z,30.05
2022-08-05T10:01:14.561Z,30.14
2022-08-05T10:04:10.388Z,30.60
2022-08-05T10:06:58.679Z,29.77
2022-08-05T10:09:29.888Z,30.22
2022-08-05T10:12:30.053Z,29.93
2022-08-05T10:15:22.220Z,30.45
2022-08-05T10:18:03.910Z,30.72
2022-08-05T10:20:35.168Z,29.70
2022-08-05T10:23:03.533Z,29.90
2022-08-05T10:25:31.199Z,30.50
2022-08-05T10:28:13.080Z,29.60
2022-08-05T10:32:49.648Z,27.65
2022-08-05T10:33:36.194Z,29.25
2022-08-05T10:36:04.978Z,26.50
2022-08-05T10:38:34.769Z,26.90
2022-08-05T10:41:46.419Z,26.40
2022-08-05T10:44:20.747Z,25.09
2022-08-05T10:46:54.727Z,27.52
2022-08-05T10:49:33.075Z,24.83
2022-08-05T10:52:05.330Z,24.71
2022-08-05T10:55:03.002Z,24.57
2022-08-05T10:57:34.054Z,25.83
2022-08-05T11:00:20.159Z,26.68
2022-08-05T11:03:22.790Z,26.17
2022-08-05T11:06:14.544Z,25.61
2022-08-05T11:09:32.513Z,25.29
2022-08-05T11:12:37.239Z,26.70
2022-08-05T11:16:00.011Z,26.04
2022-08-05T11:18:35.200Z,26.61
2022-08-05T11:21:11.405Z,27.12
2022-08-05T11:24:03.813Z,27.64
2022-08-05T11:26:43.385Z,25.25
2022-08-05T11:29:36.374Z,24.81
2022-08-05T11:32:29.213Z,25.70
2022-08-05T11:34:57.964Z,25.89
2022-08-05T11:38:36.952Z,24.65
2022-08-05T11:41:34.329Z,25.72
2022-08-05T11:44:07.146Z,25.44
2022-08-05T11:46:58.166Z,24.61
2022-08-05T11:49:26.489Z,25.08
2022-08-05T11:51:54.420Z,24.97
2022-08-05T11:54:33.600Z,23.76
2022-08-05T11:57:08.778Z,24.36
2022-08-05T11:59:52.630Z,23.86
2022-08-05T12:02:31.565Z,24.76
2022-08-05T12:05:08.122Z,22.68
2022-08-05T12:08:08.962Z,23.77
2022-08-05T12:10:43.839Z,24.79
2022-08-05T12:13:18.470Z,24.42
2022-08-05T12:15:56.127Z,24.45
2022-08-05T12:18:38.810Z,24.58
2022-08-05T12:21:19.906Z,23.77
2022-08-05T12:24:10.876Z,24.36
2022-08-05T12:26:51.375Z,24.15
2022-08-05T12:29:23.782Z,24.10
2022-08-05T12:32:01.969Z,23.46
2022-08-05T12:34:37.152Z,24.10
2022-08-05T12:37:17.614Z,24.51
2022-08-05T12:39:52.329Z,23.82
2022-08-05T12:42:25.147Z,22.71
2022-08-05T12:45:01.963Z,23.43
2022-08-05T12:47:31.224Z,24.08
2022-08-05T12:50:04.278Z,23.67
2022-08-05T12:52:41.941Z,22.42
2022-08-05T12:55:32.951Z,22.10
2022-08-05T12:58:49.931Z,22.29
2022-08-05T13:02:00.872Z,21.74
2022-08-05T13:03:42.411Z,21.87
2022-08-05T13:06:17.148Z,21.86
2022-08-05T13:08:51.630Z,21.67
2022-08-05T13:12:01.895Z,21.01
2022-08-05T13:14:19.441Z,21.85
2022-08-05T13:16:49.631Z,21.66
2022-08-05T13:19:17.803Z,21.80
2022-08-05T13:21:52.552Z,21.63
2022-08-05T13:24:27.650Z,21.74
2022-08-05T13:27:22.941Z,21.52
2022-08-05T13:30:31.547Z,20.03
2022-08-05T13:32:42.095Z,20.67
2022-08-05T13:35:22.302Z,21.87
2022-08-05T13:37:59.165Z,20.51
2022-08-05T13:40:51.868Z,20.19
2022-08-05T13:43:22.138Z,21.81
2022-08-05T13:45:50.890Z,20.12
2022-08-05T13:48:58.323Z,21.37
2022-08-05T13:51:13.670Z,20.54
2022-08-05T13:53:47.969Z,21.29
2022-08-05T13:56:18.799Z,21.06
2022-08-05T13:58:53.075Z,20.43
2022-08-05T14:01:27.497Z,20.28
2022-08-05T14:04:26.723Z,20.20
2022-08-05T14:06:58.790Z,19.84
2022-08-05T14:09:46.179Z,20.33
2022-08-05T14:12:17.678Z,19.70
2022-08-05T14:14:46.543Z,19.44
2022-08-05T14:17:17.816Z,20.10
2022-08-05T14:19:55.983Z,21.09
2022-08-05T14:22:30.489Z,19.97
2022-08-05T14:25:06.390Z,19.49
2022-08-05T14:27:48.438Z,19.30
2022-08-05T14:30:20.488Z,18.87
2022-08-05T14:32:49.446Z,18.98
2022-08-05T14:35:20.681Z,19.34
2022-08-05T14:37:55.035Z,19.39
2022-08-05T14:40:24.556Z,19.40
2022-08-05T14:42:52.638Z,19.49
2022-08-05T14:45:20.200Z,20.26
2022-08-05T14:48:03.318Z,19.99
2022-08-05T14:50:39.724Z,19.04
2022-08-05T14:53:08.816Z,19.13
2022-08-05T14:55:39.060Z,19.00
2022-08-05T14:58:11.189Z,19.03
2022-08-05T15:00:58.416Z,19.36
2022-08-05T15:03:33.896Z,20.75
2022-08-05T15:06:12.858Z,19.34
2022-08-05T15:09:01.059Z,18.41
2022-08-05T15:11:50.843Z,19.14
2022-08-05T15:14:43.107Z,18.63
2022-08-05T15:17:46.502Z,19.90
2022-08-05T15:20:19.084Z,19.08
2022-08-05T15:22:54.933Z,18.63
2022-08-05T15:25:51.205Z,18.89
2022-08-05T15:28:15.473Z,18.42
2022-08-05T15:30:46.230Z,19.50
2022-08-05T15:34:04.375Z,19.00
2022-08-05T15:36:06.185Z,19.15
2022-08-05T15:38:46.755Z,18.07
2022-08-05T15:41:22.985Z,19.19
2022-08-05T15:43:55.469Z,18.06
2022-08-05T15:46:24.238Z,18.06
2022-08-05T15:48:58.846Z,18.42
2022-08-05T15:52:03.651Z,17.68
2022-08-05T15:54:18.464Z,17.42
2022-08-05T15:56:46.545Z,16.90
2022-08-05T15:59:19.814Z,16.36
2022-08-05T16:01:52.450Z,17.65
2022-08-05T16:04:25.559Z,18.09
2022-08-05T16:06:56.672Z,16.97
2022-08-05T16:09:26.171Z,16.73
2022-08-05T16:11:54.325Z,16.71
2022-08-05T16:14:23.003Z,16.71
2022-08-05T16:16:50.787Z,16.96
2022-08-05T16:19:25.236Z,16.75
2022-08-05T16:22:07.669Z,17.78
2022-08-05T16:24:40.771Z,18.34
2022-08-05T16:27:16.355Z,17.26
2022-08-05T16:29:50.480Z,17.68
2022-08-05T16:32:28.473Z,17.96
2022-08-05T16:34:58.807Z,18.96
2022-08-05T16:38:11.960Z,18.73
2022-08-05T16:40:26.540Z,20.36
2022-08-05T16:42:57.621Z,20.58
2022-08-05T16:46:06.331Z,20.11
2022-08-05T16:48:25.312Z,19.99
2022-08-05T16:50:54.422Z,20.51
2022-08-05T16:54:03.350Z,20.95
2022-08-05T16:56:10.432Z,21.25
2022-08-05T16:58:40.824Z,22.13
2022-08-05T17:01:10.399Z,22.19
2022-08-05T17:03:38.954Z,22.19
2022-08-05T17:06:07.528Z,22.06
2022-08-05T17:08:51.909Z,22.02
2022-08-05T17:11:25.383Z,22.00
2022-08-05T17:14:00.211Z,22.38
2022-08-05T17:16:38.366Z,21.93
2022-08-05T17:19:07.162Z,22.60
2022-08-05T17:21:36.868Z,22.83
2022-08-05T17:24:19.477Z,23.48
2022-08-05T17:26:57.888Z,24.08
2022-08-05T17:29:33.223Z,24.56
2022-08-05T17:32:17.226Z,25.69
2022-08-05T17:35:04.311Z,25.98
2022-08-05T17:37:50.688Z,25.79
2022-08-05T17:40:22.639Z,26.01
2022-08-05T17:42:53.227Z,26.93
2022-08-05T17:45:25.121Z,27.31
2022-08-05T17:48:07.824Z,27.46
2022-08-05T17:50:35.909Z,28.35
2022-08-05T17:53:05.383Z,28.12
2022-08-05T17:55:38.491Z,28.81
2022-08-05T17:58:14.606Z,28.89
2022-08-05T18:00:50.769Z,29.44
2022-08-05T18:03:48.559Z,29.66
2022-08-05T18:06:12.236Z,30.05
2022-08-05T18:08:44.638Z,29.78
2022-08-05T18:11:24.626Z,30.51
2022-08-05T18:14:07.151Z,30.98
2022-08-05T18:16:46.781Z,31.18
2022-08-05T18:19:23.084Z,31.15
2022-08-05T18:22:09.324Z,31.50
2022-08-05T18:24:39.989Z,31.39
2022-08-05T18:27:18.094Z,30.89
2022-08-05T18:29:53.649Z,31.54
2022-08-05T18:32:21.893Z,31.73
2022-08-05T18:34:57.769Z,31.80
2022-08-05T18:37:34.065Z,31.86
2022-08-05T18:40:54.354Z,31.90
2022-08-05T18:43:03.777Z,31.63
2022-08-05T18:45:41.234Z,32.15
2022-08-05T18:48:11.508Z,31.94
2022-08-05T18:51:01.876Z,32.26
2022-08-05T18:53:50.491Z,32.53
2022-08-05T18:56:21.710Z,32.70
2022-08-05T18:58:50.919Z,32.66
2022-08-05T19:01:47.789Z,32.93
2022-08-05T19:04:12.547Z,32.66
2022-08-05T19:06:44.860Z,32.94
2022-08-05T19:09:13.062Z,32.75
2022-08-05T19:12:01.003Z,33.14
2022-08-05T19:14:53.251Z,32.62
2022-08-05T19:17:18.206Z,32.97
2022-08-05T19:19:48.765Z,32.99
2022-08-05T19:22:17.215Z,33.21
2022-08-05T19:24:54.455Z,32.71
2022-08-05T19:27:30.249Z,33.03
2022-08-05T19:29:58.702Z,33.19
2022-08-05T19:32:27.882Z,32.85
2022-08-05T19:34:58.582Z,33.10
2022-08-05T19:37:47.164Z,32.78
2022-08-05T19:40:17.027Z,32.97
2022-08-05T19:43:04.439Z,33.41
2022-08-05T19:45:36.255Z,33.44
2022-08-05T19:48:05.813Z,33.09
2022-08-05T19:50:33.571Z,33.35
2022-08-05T19:53:09.571Z,33.04
2022-08-05T19:56:15.132Z,33.45
2022-08-05T19:58:29.330Z,33.38
2022-08-05T20:00:58.535Z,32.96
2022-08-05T20:03:26.607Z,33.47
2022-08-05T20:05:56.656Z,33.10
2022-08-05T20:08:25.731Z,33.42
2022-08-05T20:10:55.140Z,33.68
2022-08-05T20:13:54.850Z,33.86
2022-08-05T20:16:10.652Z,33.59
2022-08-05T20:18:39.018Z,33.81
2022-08-05T20:21:07.601Z,34.19
2022-08-05T20:23:39.652Z,34.00
2022-08-05T20:26:20.408Z,34.34
2022-08-05T20:28:51.034Z,34.38
2022-08-05T20:31:36.785Z,34.39
2022-08-05T20:34:12.540Z,34.25
2022-08-05T20:36:43.521Z,34.71
2022-08-05T20:39:16.097Z,34.79
2022-08-05T20:41:46.653Z,34.91
2022-08-05T20:44:30.668Z,34.93
2022-08-05T20:47:06.715Z,35.01
2022-08-05T20:49:39.459Z,35.23
2022-08-05T20:52:08.811Z,35.25
2022-08-05T20:54:55.564Z,35.44
2022-08-05T20:57:43.465Z,35.80
2022-08-05T21:00:41.412Z,35.44
2022-08-05T21:03:06.831Z,35.74
2022-08-05T21:05:47.867Z,35.78
2022-08-05T21:08:41.302Z,35.71
2022-08-05T21:12:00.719Z,36.24
2022-08-05T21:14:01.581Z,36.07
2022-08-05T21:16:30.753Z,36.06
2022-08-05T21:19:01.193Z,36.26
2022-08-05T21:21:39.079Z,36.11
2022-08-05T21:24:15.697Z,36.19
2022-08-05T21:26:53.104Z,36.40
2022-08-05T21:29:32.163Z,36.55
2022-08-05T21:32:02.406Z,36.75
2022-08-05T21:34:31.748Z,36.61
2022-08-05T21:37:00.750Z,36.79
2022-08-05T21:39:29.717Z,36.93
2022-08-05T21:42:01.113Z,36.70
2022-08-05T21:44:31.630Z,36.82
2022-08-05T21:47:00.553Z,36.96
2022-08-05T21:49:59.476Z,36.72
2022-08-05T21:52:26.783Z,36.91
2022-08-05T21:54:57.804Z,36.91
2022-08-05T21:57:35.628Z,36.85
2022-08-05T22:00:11.179Z,36.67
2022-08-05T22:02:42.911Z,37.00
2022-08-05T22:05:12.215Z,36.74
2022-08-05T22:07:58.870Z,36.87
2022-08-05T22:10:28.146Z,37.00
2022-08-05T22:14:06.050Z,36.77
2022-08-05T22:16:00.815Z,36.71
2022-08-05T22:18:35.657Z,36.70
2022-08-05T22:21:04.007Z,36.38
2022-08-05T22:24:13.247Z,36.21
2022-08-05T22:27:17.548Z,36.19
2022-08-05T22:29:46.016Z,36.47
2022-08-05T22:32:17.429Z,36.03
2022-08-05T22:34:45.847Z,36.11
2022-08-05T22:37:13.661Z,35.95
2022-08-05T22:39:41.554Z,35.87
2022-08-05T22:42:15.392Z,36.23
2022-08-05T22:44:53.670Z,36.36
2022-08-05T22:47:29.075Z,36.38
2022-08-05T22:50:21.694Z,36.19
2022-08-05T22:52:51.422Z,36.28
2022-08-05T22:55:21.951Z,36.40
2022-08-05T22:57:53.854Z,36.32
2022-08-05T23:00:24.291Z,36.43
2022-08-05T23:02:54.686Z,36.16
2022-08-05T23:05:23.191Z,35.81
2022-08-05T23:07:52.379Z,36.06
2022-08-05T23:10:24.038Z,36.64
2022-08-05T23:12:54.755Z,38.14
2022-08-05T23:15:34.930Z,42.28
2022-08-05T23:18:05.856Z,43.72
2022-08-05T23:20:39.058Z,42.26
2022-08-05T23:23:08.684Z,44.08
2022-08-05T23:25:52.145Z,43.26
2022-08-05T23:28:26.875Z,44.02
2022-08-05T23:31:14.795Z,43.51
2022-08-05T23:34:03.966Z,44.02
2022-08-05T23:36:38.406Z,43.88
2022-08-05T23:39:08.624Z,44.30
2022-08-05T23:41:37.301Z,43.92
2022-08-05T23:44:09.078Z,44.18
2022-08-05T23:46:37.447Z,44.07
2022-08-05T23:49:16.083Z,43.91
2022-08-05T23:52:05.582Z,43.79
2022-08-05T23:54:38.348Z,42.92
2022-08-05T23:57:07.504Z,42.65
